sensor_id;sensor_type;location;lat;lon;timestamp;pressure;altitude;pressure_sealevel;temperature;humidity
12182;BME280;6154;51.550;12.138;2023-08-07T00:01:27;99341.06;;;22.94;55.72
12182;BME280;6154;51.550;12.138;2023-08-07T00:03:55;99339.16;;;22.88;55.92
12182;BME280;6154;51.550;12.138;2023-08-07T00:06:24;99346.94;;;22.83;56.21
12182;BME280;6154;51.550;12.138;2023-08-07T00:08:53;99350.03;;;22.95;55.29
12182;BME280;6154;51.550;12.138;2023-08-07T00:11:22;99348.75;;;22.76;56.29
12182;BME280;6154;51.550;12.138;2023-08-07T00:13:50;99341.94;;;22.80;55.58
12182;BME280;6154;51.550;12.138;2023-08-07T00:16:18;99343.41;;;22.83;56.08
12182;BME280;6154;51.550;12.138;2023-08-07T00:18:47;99337.37;;;22.81;56.08
12182;BME280;6154;51.550;12.138;2023-08-07T00:21:15;99336.00;;;22.70;57.58
12182;BME280;6154;51.550;12.138;2023-08-07T00:23:43;99333.50;;;22.69;57.00
12182;BME280;6154;51.550;12.138;2023-08-07T00:26:13;99334.88;;;22.79;56.58
12182;BME280;6154;51.550;12.138;2023-08-07T00:28:41;99337.66;;;22.71;58.26
12182;BME280;6154;51.550;12.138;2023-08-07T00:31:09;99344.75;;;22.72;57.55
12182;BME280;6154;51.550;12.138;2023-08-07T00:33:39;99341.88;;;22.59;58.80
12182;BME280;6154;51.550;12.138;2023-08-07T00:36:07;99348.06;;;22.74;57.79
12182;BME280;6154;51.550;12.138;2023-08-07T00:38:36;99346.69;;;22.78;56.72
12182;BME280;6154;51.550;12.138;2023-08-07T00:41:04;99352.56;;;22.67;57.76
12182;BME280;6154;51.550;12.138;2023-08-07T00:43:35;99342.91;;;22.43;60.75
12182;BME280;6154;51.550;12.138;2023-08-07T00:46:05;99335.28;;;22.61;57.90
12182;BME280;6154;51.550;12.138;2023-08-07T00:48:33;99338.19;;;22.45;61.08
12182;BME280;6154;51.550;12.138;2023-08-07T00:51:02;99341.59;;;22.69;56.97
12182;BME280;6154;51.550;12.138;2023-08-07T00:53:31;99346.91;;;22.62;58.23
12182;BME280;6154;51.550;12.138;2023-08-07T00:55:59;99343.56;;;22.60;58.09
12182;BME280;6154;51.550;12.138;2023-08-07T00:58:29;99354.16;;;22.61;58.70
12182;BME280;6154;51.550;12.138;2023-08-07T01:00:59;99345.81;;;22.42;60.23
12182;BME280;6154;51.550;12.138;2023-08-07T01:03:27;99358.25;;;22.57;58.31
12182;BME280;6154;51.550;12.138;2023-08-07T01:05:55;99356.03;;;22.31;61.21
12182;BME280;6154;51.550;12.138;2023-08-07T01:08:24;99355.66;;;22.34;61.67
12182;BME280;6154;51.550;12.138;2023-08-07T01:11:07;99359.38;;;22.33;61.46
12182;BME280;6154;51.550;12.138;2023-08-07T01:13:45;99363.28;;;22.31;62.31
12182;BME280;6154;51.550;12.138;2023-08-07T01:16:19;99352.03;;;22.57;59.14
12182;BME280;6154;51.550;12.138;2023-08-07T01:18:50;99352.22;;;22.55;59.26
12182;BME280;6154;51.550;12.138;2023-08-07T01:21:19;99357.03;;;22.60;58.33
12182;BME280;6154;51.550;12.138;2023-08-07T01:23:49;99353.09;;;22.26;61.39
12182;BME280;6154;51.550;12.138;2023-08-07T01:26:19;99360.97;;;22.43;60.13
12182;BME280;6154;51.550;12.138;2023-08-07T01:29:04;99361.97;;;22.42;59.12
12182;BME280;6154;51.550;12.138;2023-08-07T01:31:36;99364.09;;;22.02;63.01
12182;BME280;6154;51.550;12.138;2023-08-07T01:34:07;99353.06;;;22.41;58.71
12182;BME280;6154;51.550;12.138;2023-08-07T01:36:39;99350.66;;;22.31;59.31
12182;BME280;6154;51.550;12.138;2023-08-07T01:39:09;99357.25;;;22.29;58.98
12182;BME280;6154;51.550;12.138;2023-08-07T01:41:38;99357.53;;;22.34;59.05
12182;BME280;6154;51.550;12.138;2023-08-07T01:44:07;99360.06;;;22.35;57.95
12182;BME280;6154;51.550;12.138;2023-08-07T01:46:35;99360.22;;;22.19;60.11
12182;BME280;6154;51.550;12.138;2023-08-07T01:49:04;99366.56;;;22.26;58.44
12182;BME280;6154;51.550;12.138;2023-08-07T01:51:32;99369.25;;;22.26;59.38
12182;BME280;6154;51.550;12.138;2023-08-07T01:54:00;99376.69;;;22.09;60.32
12182;BME280;6154;51.550;12.138;2023-08-07T01:56:30;99373.34;;;22.07;59.38
12182;BME280;6154;51.550;12.138;2023-08-07T01:58:58;99381.28;;;22.01;61.56
12182;BME280;6154;51.550;12.138;2023-08-07T02:01:26;99379.56;;;22.08;60.08
12182;BME280;6154;51.550;12.138;2023-08-07T02:03:55;99380.12;;;22.18;58.37
12182;BME280;6154;51.550;12.138;2023-08-07T02:06:25;99382.28;;;21.85;61.89
12182;BME280;6154;51.550;12.138;2023-08-07T02:08:53;99375.37;;;22.20;58.14
12182;BME280;6154;51.550;12.138;2023-08-07T02:11:21;99377.69;;;22.08;60.18
12182;BME280;6154;51.550;12.138;2023-08-07T02:13:51;99372.22;;;22.17;58.56
12182;BME280;6154;51.550;12.138;2023-08-07T02:16:19;99379.09;;;22.19;58.34
12182;BME280;6154;51.550;12.138;2023-08-07T02:18:48;99376.53;;;22.03;59.31
12182;BME280;6154;51.550;12.138;2023-08-07T02:21:16;99389.81;;;22.04;60.76
12182;BME280;6154;51.550;12.138;2023-08-07T02:23:44;99381.34;;;22.16;58.98
12182;BME280;6154;51.550;12.138;2023-08-07T02:26:13;99378.38;;;22.25;57.88
12182;BME280;6154;51.550;12.138;2023-08-07T02:28:41;99380.03;;;22.26;58.08
12182;BME280;6154;51.550;12.138;2023-08-07T02:31:10;99388.28;;;22.10;59.47
12182;BME280;6154;51.550;12.138;2023-08-07T02:33:39;99381.53;;;22.29;58.26
12182;BME280;6154;51.550;12.138;2023-08-07T02:36:08;99372.50;;;22.22;58.93
12182;BME280;6154;51.550;12.138;2023-08-07T02:38:36;99373.00;;;22.02;61.03
12182;BME280;6154;51.550;12.138;2023-08-07T02:41:05;99380.00;;;22.12;60.86
12182;BME280;6154;51.550;12.138;2023-08-07T02:43:34;99382.06;;;22.09;59.91
12182;BME280;6154;51.550;12.138;2023-08-07T02:46:03;99392.34;;;22.06;60.80
12182;BME280;6154;51.550;12.138;2023-08-07T02:48:33;99383.72;;;22.11;60.46
12182;BME280;6154;51.550;12.138;2023-08-07T02:51:02;99394.62;;;22.17;59.49
12182;BME280;6154;51.550;12.138;2023-08-07T02:53:30;99390.16;;;22.24;59.15
12182;BME280;6154;51.550;12.138;2023-08-07T02:55:58;99392.84;;;22.24;59.66
12182;BME280;6154;51.550;12.138;2023-08-07T02:58:26;99400.84;;;22.18;60.44
12182;BME280;6154;51.550;12.138;2023-08-07T03:00:55;99410.16;;;22.30;59.44
12182;BME280;6154;51.550;12.138;2023-08-07T03:03:23;99405.03;;;22.20;59.72
12182;BME280;6154;51.550;12.138;2023-08-07T03:05:53;99408.28;;;22.16;59.61
12182;BME280;6154;51.550;12.138;2023-08-07T03:08:21;99402.53;;;22.19;59.46
12182;BME280;6154;51.550;12.138;2023-08-07T03:10:51;99409.38;;;22.06;61.38
12182;BME280;6154;51.550;12.138;2023-08-07T03:13:20;99406.31;;;22.24;59.07
12182;BME280;6154;51.550;12.138;2023-08-07T03:15:48;99398.25;;;22.09;60.44
12182;BME280;6154;51.550;12.138;2023-08-07T03:18:17;99402.78;;;22.24;59.33
12182;BME280;6154;51.550;12.138;2023-08-07T03:20:46;99411.44;;;22.19;59.03
12182;BME280;6154;51.550;12.138;2023-08-07T03:23:16;99420.44;;;22.12;59.71
12182;BME280;6154;51.550;12.138;2023-08-07T03:25:45;99416.91;;;22.11;59.42
12182;BME280;6154;51.550;12.138;2023-08-07T03:28:13;99415.00;;;21.97;61.51
12182;BME280;6154;51.550;12.138;2023-08-07T03:30:41;99411.47;;;21.96;61.76
12182;BME280;6154;51.550;12.138;2023-08-07T03:33:12;99421.84;;;22.22;59.52
12182;BME280;6154;51.550;12.138;2023-08-07T03:35:40;99424.19;;;22.25;59.50
12182;BME280;6154;51.550;12.138;2023-08-07T03:38:08;99422.41;;;22.18;59.76
12182;BME280;6154;51.550;12.138;2023-08-07T03:40:39;99427.38;;;22.06;61.24
12182;BME280;6154;51.550;12.138;2023-08-07T03:43:07;99433.78;;;22.28;59.29
12182;BME280;6154;51.550;12.138;2023-08-07T03:45:36;99432.09;;;22.27;59.15
12182;BME280;6154;51.550;12.138;2023-08-07T03:48:04;99431.72;;;22.30;58.91
12182;BME280;6154;51.550;12.138;2023-08-07T03:50:34;99434.78;;;22.42;57.99
12182;BME280;6154;51.550;12.138;2023-08-07T03:53:05;99428.38;;;22.28;59.13
12182;BME280;6154;51.550;12.138;2023-08-07T03:55:35;99441.28;;;22.32;59.29
12182;BME280;6154;51.550;12.138;2023-08-07T03:58:04;99440.19;;;22.27;58.98
12182;BME280;6154;51.550;12.138;2023-08-07T04:00:33;99440.44;;;22.17;59.67
12182;BME280;6154;51.550;12.138;2023-08-07T04:03:01;99442.56;;;22.22;59.58
12182;BME280;6154;51.550;12.138;2023-08-07T04:05:33;99442.97;;;22.33;58.56
12182;BME280;6154;51.550;12.138;2023-08-07T04:08:01;99450.03;;;22.34;59.22
12182;BME280;6154;51.550;12.138;2023-08-07T04:10:30;99449.31;;;22.41;58.32
12182;BME280;6154;51.550;12.138;2023-08-07T04:12:58;99445.00;;;22.31;59.33
12182;BME280;6154;51.550;12.138;2023-08-07T04:15:28;99453.03;;;22.40;58.66
12182;BME280;6154;51.550;12.138;2023-08-07T04:17:56;99461.22;;;22.46;58.42
12182;BME280;6154;51.550;12.138;2023-08-07T04:20:25;99462.72;;;22.49;58.48
12182;BME280;6154;51.550;12.138;2023-08-07T04:22:53;99462.13;;;22.38;59.06
12182;BME280;6154;51.550;12.138;2023-08-07T04:25:22;99463.34;;;22.36;58.57
12182;BME280;6154;51.550;12.138;2023-08-07T04:27:50;99467.22;;;22.33;58.66
12182;BME280;6154;51.550;12.138;2023-08-07T04:30:19;99464.19;;;22.36;58.18
12182;BME280;6154;51.550;12.138;2023-08-07T04:32:49;99471.59;;;22.34;58.56
12182;BME280;6154;51.550;12.138;2023-08-07T04:35:17;99472.47;;;22.35;58.51
12182;BME280;6154;51.550;12.138;2023-08-07T04:37:45;99474.87;;;22.45;57.68
12182;BME280;6154;51.550;12.138;2023-08-07T04:40:14;99480.72;;;22.33;58.84
12182;BME280;6154;51.550;12.138;2023-08-07T04:42:42;99476.63;;;22.37;58.52
12182;BME280;6154;51.550;12.138;2023-08-07T04:45:10;99483.34;;;22.42;58.29
12182;BME280;6154;51.550;12.138;2023-08-07T04:47:38;99480.38;;;22.36;58.85
12182;BME280;6154;51.550;12.138;2023-08-07T04:50:09;99491.41;;;22.42;58.58
12182;BME280;6154;51.550;12.138;2023-08-07T04:52:37;99484.34;;;22.41;58.98
12182;BME280;6154;51.550;12.138;2023-08-07T04:55:06;99488.53;;;22.43;59.02
12182;BME280;6154;51.550;12.138;2023-08-07T04:57:34;99488.53;;;22.43;59.21
12182;BME280;6154;51.550;12.138;2023-08-07T05:00:03;99493.97;;;22.58;58.13
12182;BME280;6154;51.550;12.138;2023-08-07T05:02:32;99501.47;;;22.62;58.12
12182;BME280;6154;51.550;12.138;2023-08-07T05:05:00;99500.84;;;22.60;57.94
12182;BME280;6154;51.550;12.138;2023-08-07T05:07:32;99505.31;;;22.68;58.37
12182;BME280;6154;51.550;12.138;2023-08-07T05:10:01;99497.72;;;22.86;57.57
12182;BME280;6154;51.550;12.138;2023-08-07T05:12:30;99498.44;;;22.80;57.77
12182;BME280;6154;51.550;12.138;2023-08-07T05:14:58;99499.91;;;22.83;57.55
12182;BME280;6154;51.550;12.138;2023-08-07T05:17:26;99502.16;;;22.79;58.29
12182;BME280;6154;51.550;12.138;2023-08-07T05:19:55;99506.56;;;22.95;58.32
12182;BME280;6154;51.550;12.138;2023-08-07T05:22:23;99502.06;;;23.17;57.36
12182;BME280;6154;51.550;12.138;2023-08-07T05:24:52;99507.19;;;23.27;57.33
12182;BME280;6154;51.550;12.138;2023-08-07T05:27:21;99507.91;;;23.35;57.18
12182;BME280;6154;51.550;12.138;2023-08-07T05:29:49;99505.37;;;23.34;57.80
12182;BME280;6154;51.550;12.138;2023-08-07T05:32:17;99508.44;;;23.45;57.01
12182;BME280;6154;51.550;12.138;2023-08-07T05:34:45;99506.75;;;23.59;56.70
12182;BME280;6154;51.550;12.138;2023-08-07T05:37:13;99507.28;;;23.69;56.13
12182;BME280;6154;51.550;12.138;2023-08-07T05:39:41;99517.19;;;23.47;56.76
12182;BME280;6154;51.550;12.138;2023-08-07T05:42:11;99524.19;;;23.42;57.25
12182;BME280;6154;51.550;12.138;2023-08-07T05:44:39;99524.75;;;23.37;57.19
12182;BME280;6154;51.550;12.138;2023-08-07T05:47:07;99525.69;;;23.30;57.66
12182;BME280;6154;51.550;12.138;2023-08-07T05:49:36;99531.84;;;23.38;56.75
12182;BME280;6154;51.550;12.138;2023-08-07T05:52:05;99531.19;;;23.36;57.03
12182;BME280;6154;51.550;12.138;2023-08-07T05:54:33;99529.53;;;23.35;57.20
12182;BME280;6154;51.550;12.138;2023-08-07T05:57:01;99538.06;;;23.24;57.18
12182;BME280;6154;51.550;12.138;2023-08-07T05:59:31;99538.47;;;22.91;58.30
12182;BME280;6154;51.550;12.138;2023-08-07T06:02:02;99542.38;;;23.04;58.21
12182;BME280;6154;51.550;12.138;2023-08-07T06:04:32;99546.47;;;23.00;58.58
12182;BME280;6154;51.550;12.138;2023-08-07T06:07:00;99539.13;;;23.08;58.31
12182;BME280;6154;51.550;12.138;2023-08-07T06:09:28;99545.44;;;23.30;57.39
12182;BME280;6154;51.550;12.138;2023-08-07T06:11:57;99548.22;;;23.37;57.25
12182;BME280;6154;51.550;12.138;2023-08-07T06:14:25;99549.22;;;23.50;56.82
12182;BME280;6154;51.550;12.138;2023-08-07T06:16:55;99555.25;;;23.52;56.98
12182;BME280;6154;51.550;12.138;2023-08-07T06:19:25;99553.16;;;23.48;57.50
12182;BME280;6154;51.550;12.138;2023-08-07T06:21:58;99549.59;;;23.47;57.24
12182;BME280;6154;51.550;12.138;2023-08-07T06:24:27;99555.16;;;23.75;56.55
12182;BME280;6154;51.550;12.138;2023-08-07T06:26:55;99568.63;;;23.90;56.37
12182;BME280;6154;51.550;12.138;2023-08-07T06:29:24;99569.16;;;24.00;55.91
12182;BME280;6154;51.550;12.138;2023-08-07T06:31:52;99564.88;;;24.13;55.83
12182;BME280;6154;51.550;12.138;2023-08-07T06:34:22;99566.72;;;24.27;55.73
12182;BME280;6154;51.550;12.138;2023-08-07T06:36:50;99568.19;;;24.08;56.23
12182;BME280;6154;51.550;12.138;2023-08-07T06:39:18;99565.28;;;24.09;56.00
12182;BME280;6154;51.550;12.138;2023-08-07T06:41:46;99575.91;;;23.90;56.16
12182;BME280;6154;51.550;12.138;2023-08-07T06:44:16;99575.34;;;24.16;55.86
12182;BME280;6154;51.550;12.138;2023-08-07T06:46:44;99569.47;;;24.12;56.07
12182;BME280;6154;51.550;12.138;2023-08-07T06:49:12;99580.34;;;24.19;55.86
12182;BME280;6154;51.550;12.138;2023-08-07T06:51:42;99576.72;;;24.54;55.26
12182;BME280;6154;51.550;12.138;2023-08-07T06:54:10;99580.13;;;24.63;55.20
12182;BME280;6154;51.550;12.138;2023-08-07T06:56:38;99579.22;;;24.49;54.86
12182;BME280;6154;51.550;12.138;2023-08-07T06:59:09;99588.69;;;24.39;55.23
12182;BME280;6154;51.550;12.138;2023-08-07T07:01:37;99587.63;;;24.61;55.24
12182;BME280;6154;51.550;12.138;2023-08-07T07:04:05;99585.38;;;24.43;55.41
12182;BME280;6154;51.550;12.138;2023-08-07T07:06:33;99585.34;;;24.64;55.10
12182;BME280;6154;51.550;12.138;2023-08-07T07:09:03;99584.38;;;25.00;54.60
12182;BME280;6154;51.550;12.138;2023-08-07T07:11:31;99585.62;;;24.98;54.67
12182;BME280;6154;51.550;12.138;2023-08-07T07:14:01;99589.72;;;24.93;54.62
12182;BME280;6154;51.550;12.138;2023-08-07T07:16:30;99587.81;;;24.59;54.73
12182;BME280;6154;51.550;12.138;2023-08-07T07:18:58;99595.19;;;24.65;54.65
12182;BME280;6154;51.550;12.138;2023-08-07T07:21:26;99601.03;;;24.97;54.17
12182;BME280;6154;51.550;12.138;2023-08-07T07:23:55;99598.47;;;25.17;54.06
12182;BME280;6154;51.550;12.138;2023-08-07T07:26:24;99603.59;;;25.05;53.91
12182;BME280;6154;51.550;12.138;2023-08-07T07:28:52;99604.91;;;24.88;53.60
12182;BME280;6154;51.550;12.138;2023-08-07T07:31:21;99603.88;;;24.89;53.99
12182;BME280;6154;51.550;12.138;2023-08-07T07:33:49;99613.13;;;25.01;54.27
12182;BME280;6154;51.550;12.138;2023-08-07T07:36:18;99616.19;;;25.19;54.03
12182;BME280;6154;51.550;12.138;2023-08-07T07:38:47;99615.00;;;25.29;54.07
12182;BME280;6154;51.550;12.138;2023-08-07T07:41:16;99613.22;;;25.08;53.54
12182;BME280;6154;51.550;12.138;2023-08-07T07:43:46;99617.19;;;25.46;54.17
12182;BME280;6154;51.550;12.138;2023-08-07T07:46:14;99624.22;;;25.41;53.57
12182;BME280;6154;51.550;12.138;2023-08-07T07:48:42;99611.56;;;25.89;52.60
12182;BME280;6154;51.550;12.138;2023-08-07T07:51:11;99621.81;;;25.59;52.73
12182;BME280;6154;51.550;12.138;2023-08-07T07:53:39;99613.66;;;26.00;52.67
12182;BME280;6154;51.550;12.138;2023-08-07T07:56:07;99620.44;;;25.70;53.02
12182;BME280;6154;51.550;12.138;2023-08-07T07:58:35;99620.72;;;25.95;52.85
12182;BME280;6154;51.550;12.138;2023-08-07T08:01:05;99631.56;;;25.95;52.47
12182;BME280;6154;51.550;12.138;2023-08-07T08:03:34;99627.03;;;26.02;52.54
12182;BME280;6154;51.550;12.138;2023-08-07T08:06:02;99635.13;;;25.89;52.74
12182;BME280;6154;51.550;12.138;2023-08-07T08:08:30;99634.16;;;26.23;52.71
12182;BME280;6154;51.550;12.138;2023-08-07T08:10:58;99646.47;;;26.25;52.14
12182;BME280;6154;51.550;12.138;2023-08-07T08:13:29;99641.44;;;26.09;51.63
12182;BME280;6154;51.550;12.138;2023-08-07T08:15:58;99645.19;;;26.08;51.22
12182;BME280;6154;51.550;12.138;2023-08-07T08:18:28;99638.75;;;26.16;51.89
12182;BME280;6154;51.550;12.138;2023-08-07T08:20:56;99639.47;;;25.83;52.10
12182;BME280;6154;51.550;12.138;2023-08-07T08:23:24;99638.97;;;25.66;52.18
12182;BME280;6154;51.550;12.138;2023-08-07T08:25:52;99640.25;;;25.70;52.00
12182;BME280;6154;51.550;12.138;2023-08-07T08:28:20;99642.34;;;25.75;51.64
12182;BME280;6154;51.550;12.138;2023-08-07T08:30:51;99646.44;;;25.64;52.31
12182;BME280;6154;51.550;12.138;2023-08-07T08:33:19;99655.47;;;25.71;51.97
12182;BME280;6154;51.550;12.138;2023-08-07T08:35:49;99645.22;;;25.67;52.12
12182;BME280;6154;51.550;12.138;2023-08-07T08:38:17;99657.19;;;25.44;52.13
12182;BME280;6154;51.550;12.138;2023-08-07T08:40:47;99662.38;;;25.11;53.57
12182;BME280;6154;51.550;12.138;2023-08-07T08:43:15;99663.28;;;24.69;54.43
12182;BME280;6154;51.550;12.138;2023-08-07T08:45:45;99669.38;;;24.35;54.76
12182;BME280;6154;51.550;12.138;2023-08-07T08:48:18;99658.19;;;24.38;54.16
12182;BME280;6154;51.550;12.138;2023-08-07T08:50:52;99659.47;;;24.42;55.10
12182;BME280;6154;51.550;12.138;2023-08-07T08:53:20;99670.03;;;24.37;55.62
12182;BME280;6154;51.550;12.138;2023-08-07T08:55:49;99664.22;;;24.61;54.97
12182;BME280;6154;51.550;12.138;2023-08-07T08:58:20;99670.09;;;24.44;56.09
12182;BME280;6154;51.550;12.138;2023-08-07T09:00:48;99673.09;;;24.34;56.96
12182;BME280;6154;51.550;12.138;2023-08-07T09:03:18;99682.25;;;24.54;55.68
12182;BME280;6154;51.550;12.138;2023-08-07T09:05:47;99671.69;;;24.81;54.42
12182;BME280;6154;51.550;12.138;2023-08-07T09:08:18;99679.06;;;24.87;54.13
12182;BME280;6154;51.550;12.138;2023-08-07T09:10:47;99677.88;;;25.17;53.69
12182;BME280;6154;51.550;12.138;2023-08-07T09:13:17;99684.12;;;24.97;53.10
12182;BME280;6154;51.550;12.138;2023-08-07T09:15:50;99681.34;;;24.90;52.97
12182;BME280;6154;51.550;12.138;2023-08-07T09:18:18;99677.62;;;24.91;52.97
12182;BME280;6154;51.550;12.138;2023-08-07T09:20:48;99691.28;;;24.83;53.06
12182;BME280;6154;51.550;12.138;2023-08-07T09:23:16;99696.47;;;24.78;53.20
12182;BME280;6154;51.550;12.138;2023-08-07T09:25:46;99685.72;;;24.27;55.93
12182;BME280;6154;51.550;12.138;2023-08-07T09:28:14;99684.25;;;24.09;55.18
12182;BME280;6154;51.550;12.138;2023-08-07T09:30:42;99688.97;;;23.86;56.07
12182;BME280;6154;51.550;12.138;2023-08-07T09:33:11;99694.09;;;23.81;56.63
12182;BME280;6154;51.550;12.138;2023-08-07T09:35:39;99698.38;;;23.90;55.89
12182;BME280;6154;51.550;12.138;2023-08-07T09:38:08;99703.78;;;23.90;55.69
12182;BME280;6154;51.550;12.138;2023-08-07T09:40:36;99710.75;;;23.99;55.28
12182;BME280;6154;51.550;12.138;2023-08-07T09:43:06;99699.06;;;24.14;54.91
12182;BME280;6154;51.550;12.138;2023-08-07T09:45:35;99703.13;;;24.24;55.83
12182;BME280;6154;51.550;12.138;2023-08-07T09:48:06;99708.50;;;24.54;54.89
12182;BME280;6154;51.550;12.138;2023-08-07T09:50:34;99715.78;;;24.75;55.21
12182;BME280;6154;51.550;12.138;2023-08-07T09:53:02;99710.75;;;25.14;54.70
12182;BME280;6154;51.550;12.138;2023-08-07T09:55:31;99707.00;;;25.71;54.21
12182;BME280;6154;51.550;12.138;2023-08-07T09:58:01;99713.94;;;25.81;53.66
12182;BME280;6154;51.550;12.138;2023-08-07T10:00:34;99698.13;;;25.91;53.28
12182;BME280;6154;51.550;12.138;2023-08-07T10:03:04;99684.75;;;25.55;54.20
12182;BME280;6154;51.550;12.138;2023-08-07T10:05:32;99702.97;;;25.33;54.25
12182;BME280;6154;51.550;12.138;2023-08-07T10:08:01;99708.72;;;25.23;54.64
12182;BME280;6154;51.550;12.138;2023-08-07T10:10:32;99712.56;;;25.07;55.03
12182;BME280;6154;51.550;12.138;2023-08-07T10:13:01;99711.47;;;25.02;55.33
12182;BME280;6154;51.550;12.138;2023-08-07T10:15:31;99713.94;;;25.25;55.79
12182;BME280;6154;51.550;12.138;2023-08-07T10:18:01;99705.84;;;25.94;54.98
12182;BME280;6154;51.550;12.138;2023-08-07T10:20:30;99705.94;;;26.14;54.43
12182;BME280;6154;51.550;12.138;2023-08-07T10:23:02;99712.19;;;26.14;54.15
12182;BME280;6154;51.550;12.138;2023-08-07T10:25:33;99705.06;;;26.00;53.39
12182;BME280;6154;51.550;12.138;2023-08-07T10:28:04;99710.16;;;25.82;53.77
12182;BME280;6154;51.550;12.138;2023-08-07T10:30:34;99708.75;;;25.92;54.15
12182;BME280;6154;51.550;12.138;2023-08-07T10:33:04;99703.78;;;25.96;54.22
12182;BME280;6154;51.550;12.138;2023-08-07T10:35:34;99710.13;;;26.16;53.20
12182;BME280;6154;51.550;12.138;2023-08-07T10:38:06;99718.50;;;26.28;53.72
12182;BME280;6154;51.550;12.138;2023-08-07T10:41:06;99714.41;;;26.39;53.17
12182;BME280;6154;51.550;12.138;2023-08-07T10:43:39;99710.03;;;26.38;51.93
12182;BME280;6154;51.550;12.138;2023-08-07T10:46:10;99704.84;;;26.56;52.81
12182;BME280;6154;51.550;12.138;2023-08-07T10:48:42;99708.00;;;26.73;53.24
12182;BME280;6154;51.550;12.138;2023-08-07T10:51:15;99711.56;;;26.93;52.79
12182;BME280;6154;51.550;12.138;2023-08-07T10:53:46;99713.91;;;27.16;52.59
12182;BME280;6154;51.550;12.138;2023-08-07T10:56:16;99714.69;;;27.43;52.10
12182;BME280;6154;51.550;12.138;2023-08-07T10:58:49;99709.44;;;27.81;52.03
12182;BME280;6154;51.550;12.138;2023-08-07T11:01:26;99700.19;;;27.89;51.67
12182;BME280;6154;51.550;12.138;2023-08-07T11:03:58;99709.44;;;27.81;50.12
12182;BME280;6154;51.550;12.138;2023-08-07T11:06:30;99706.03;;;27.92;51.29
12182;BME280;6154;51.550;12.138;2023-08-07T11:08:59;99711.59;;;27.33;51.14
12182;BME280;6154;51.550;12.138;2023-08-07T11:11:27;99711.19;;;27.03;51.30
12182;BME280;6154;51.550;12.138;2023-08-07T11:13:56;99711.97;;;26.70;52.29
12182;BME280;6154;51.550;12.138;2023-08-07T11:16:24;99722.38;;;26.47;52.34
12182;BME280;6154;51.550;12.138;2023-08-07T11:18:54;99726.44;;;25.82;54.23
12182;BME280;6154;51.550;12.138;2023-08-07T11:21:23;99717.53;;;25.32;55.16
12182;BME280;6154;51.550;12.138;2023-08-07T11:23:55;99719.06;;;24.70;56.53
12182;BME280;6154;51.550;12.138;2023-08-07T11:26:23;99726.78;;;24.52;56.11
12182;BME280;6154;51.550;12.138;2023-08-07T11:28:53;99725.44;;;24.62;55.33
12182;BME280;6154;51.550;12.138;2023-08-07T11:31:22;99726.84;;;25.01;54.27
12182;BME280;6154;51.550;12.138;2023-08-07T11:33:51;99723.72;;;25.19;53.95
12182;BME280;6154;51.550;12.138;2023-08-07T11:36:19;99730.19;;;25.25;53.50
12182;BME280;6154;51.550;12.138;2023-08-07T11:38:49;99731.50;;;25.29;53.85
12182;BME280;6154;51.550;12.138;2023-08-07T11:41:18;99748.72;;;25.21;54.16
12182;BME280;6154;51.550;12.138;2023-08-07T11:43:47;99743.81;;;25.31;53.54
12182;BME280;6154;51.550;12.138;2023-08-07T11:46:15;99747.13;;;25.27;54.45
12182;BME280;6154;51.550;12.138;2023-08-07T11:48:44;99737.59;;;25.09;54.80
12182;BME280;6154;51.550;12.138;2023-08-07T11:51:13;99727.97;;;25.35;53.74
12182;BME280;6154;51.550;12.138;2023-08-07T11:53:41;99731.59;;;25.42;54.29
12182;BME280;6154;51.550;12.138;2023-08-07T11:56:12;99723.62;;;25.68;53.76
12182;BME280;6154;51.550;12.138;2023-08-07T11:58:43;99716.69;;;25.94;53.82
12182;BME280;6154;51.550;12.138;2023-08-07T12:01:14;99716.97;;;26.12;53.17
12182;BME280;6154;51.550;12.138;2023-08-07T12:03:52;99726.78;;;26.06;53.31
12182;BME280;6154;51.550;12.138;2023-08-07T12:06:21;99727.63;;;26.14;53.70
12182;BME280;6154;51.550;12.138;2023-08-07T12:08:53;99719.03;;;26.03;52.97
12182;BME280;6154;51.550;12.138;2023-08-07T12:11:23;99722.41;;;26.12;53.24
12182;BME280;6154;51.550;12.138;2023-08-07T12:13:52;99719.69;;;26.05;52.42
12182;BME280;6154;51.550;12.138;2023-08-07T12:16:20;99742.09;;;25.79;52.38
12182;BME280;6154;51.550;12.138;2023-08-07T12:18:49;99744.88;;;26.41;52.07
12182;BME280;6154;51.550;12.138;2023-08-07T12:21:20;99745.75;;;25.44;51.13
12182;BME280;6154;51.550;12.138;2023-08-07T12:23:51;99756.22;;;26.10;51.12
12182;BME280;6154;51.550;12.138;2023-08-07T12:26:24;99761.59;;;26.03;50.37
12182;BME280;6154;51.550;12.138;2023-08-07T12:28:52;99752.88;;;25.73;51.21
12182;BME280;6154;51.550;12.138;2023-08-07T12:31:20;99764.78;;;26.13;51.33
12182;BME280;6154;51.550;12.138;2023-08-07T12:33:49;99755.41;;;25.46;52.04
12182;BME280;6154;51.550;12.138;2023-08-07T12:36:18;99772.97;;;25.57;51.97
12182;BME280;6154;51.550;12.138;2023-08-07T12:38:47;99761.03;;;25.51;52.14
12182;BME280;6154;51.550;12.138;2023-08-07T12:41:15;99766.41;;;25.45;52.34
12182;BME280;6154;51.550;12.138;2023-08-07T12:43:47;99763.47;;;25.96;51.81
12182;BME280;6154;51.550;12.138;2023-08-07T12:46:16;99764.78;;;26.13;52.08
12182;BME280;6154;51.550;12.138;2023-08-07T12:48:47;99748.94;;;26.71;51.47
12182;BME280;6154;51.550;12.138;2023-08-07T12:51:16;99757.37;;;27.03;50.97
12182;BME280;6154;51.550;12.138;2023-08-07T12:53:44;99760.22;;;26.68;50.79
12182;BME280;6154;51.550;12.138;2023-08-07T12:56:14;99764.22;;;26.99;50.44
12182;BME280;6154;51.550;12.138;2023-08-07T12:58:42;99770.03;;;26.82;50.34
12182;BME280;6154;51.550;12.138;2023-08-07T13:01:12;99771.06;;;26.68;50.31
12182;BME280;6154;51.550;12.138;2023-08-07T13:03:40;99777.59;;;26.93;50.55
12182;BME280;6154;51.550;12.138;2023-08-07T13:06:08;99772.63;;;27.04;50.13
12182;BME280;6154;51.550;12.138;2023-08-07T13:08:39;99777.25;;;27.36;50.26
12182;BME280;6154;51.550;12.138;2023-08-07T13:11:08;99776.41;;;27.69;49.93